sensor_id;sensor_type;location;lat;lon;timestamp;P1;durP1;ratioP1;P2;durP2;ratioP2
21258;SDS011;10787;53.364;-1.480;2023-12-04T00:00:10;17.03;;;8.97;;
21258;SDS011;10787;53.364;-1.480;2023-12-04T00:02:54;17.47;;;9.30;;
21258;SDS011;10787;53.364;-1.480;2023-12-04T00:05:41;19.17;;;9.77;;
21258;SDS011;10787;53.364;-1.480;2023-12-04T00:08:27;18.07;;;9.13;;
21258;SDS011;10787;53.364;-1.480;2023-12-04T00:11:11;19.47;;;9.57;;
21258;SDS011;10787;53.364;-1.480;2023-12-04T00:13:56;18.63;;;9.37;;
21258;SDS011;10787;53.364;-1.480;2023-12-04T00:16:40;19.77;;;9.87;;
21258;SDS011;10787;53.364;-1.480;2023-12-04T00:19:24;19.40;;;10.27;;
21258;SDS011;10787;53.364;-1.480;2023-12-04T00:22:09;20.43;;;9.83;;
21258;SDS011;10787;53.364;-1.480;2023-12-04T00:24:53;21.37;;;10.57;;
21258;SDS011;10787;53.364;-1.480;2023-12-04T00:27:37;20.60;;;10.47;;
21258;SDS011;10787;53.364;-1.480;2023-12-04T00:30:22;20.07;;;10.47;;
21258;SDS011;10787;53.364;-1.480;2023-12-04T00:33:06;20.90;;;10.53;;
21258;SDS011;10787;53.364;-1.480;2023-12-04T00:35:51;22.10;;;10.67;;
21258;SDS011;10787;53.364;-1.480;2023-12-04T00:38:35;18.53;;;9.90;;
21258;SDS011;10787;53.364;-1.480;2023-12-04T00:41:19;21.43;;;10.30;;
21258;SDS011;10787;53.364;-1.480;2023-12-04T00:44:04;19.47;;;10.03;;
21258;SDS011;10787;53.364;-1.480;2023-12-04T00:46:48;19.47;;;10.10;;
21258;SDS011;10787;53.364;-1.480;2023-12-04T00:49:33;19.80;;;9.70;;
21258;SDS011;10787;53.364;-1.480;2023-12-04T00:52:17;19.40;;;9.57;;
21258;SDS011;10787;53.364;-1.480;2023-12-04T00:55:01;18.93;;;9.53;;
21258;SDS011;10787;53.364;-1.480;2023-12-04T00:57:45;20.13;;;10.00;;
21258;SDS011;10787;53.364;-1.480;2023-12-04T01:00:30;18.50;;;9.23;;
21258;SDS011;10787;53.364;-1.480;2023-12-04T01:03:14;19.97;;;9.33;;
21258;SDS011;10787;53.364;-1.480;2023-12-04T01:05:58;17.73;;;8.80;;
21258;SDS011;10787;53.364;-1.480;2023-12-04T01:08:43;18.00;;;9.67;;
21258;SDS011;10787;53.364;-1.480;2023-12-04T01:11:27;17.20;;;8.60;;
21258;SDS011;10787;53.364;-1.480;2023-12-04T01:14:11;17.90;;;9.47;;
21258;SDS011;10787;53.364;-1.480;2023-12-04T01:16:56;20.37;;;9.17;;
21258;SDS011;10787;53.364;-1.480;2023-12-04T01:19:40;20.13;;;9.13;;
21258;SDS011;10787;53.364;-1.480;2023-12-04T01:22:24;17.30;;;8.03;;
21258;SDS011;10787;53.364;-1.480;2023-12-04T01:25:08;17.10;;;8.93;;
21258;SDS011;10787;53.364;-1.480;2023-12-04T01:27:53;19.17;;;8.93;;
21258;SDS011;10787;53.364;-1.480;2023-12-04T01:30:37;18.83;;;8.83;;
21258;SDS011;10787;53.364;-1.480;2023-12-04T01:33:22;20.37;;;9.17;;
21258;SDS011;10787;53.364;-1.480;2023-12-04T01:36:06;17.20;;;8.40;;
21258;SDS011;10787;53.364;-1.480;2023-12-04T01:38:50;19.73;;;9.07;;
21258;SDS011;10787;53.364;-1.480;2023-12-04T01:41:34;20.07;;;8.60;;
21258;SDS011;10787;53.364;-1.480;2023-12-04T01:44:18;18.83;;;9.23;;
21258;SDS011;10787;53.364;-1.480;2023-12-04T01:47:03;20.87;;;9.17;;
21258;SDS011;10787;53.364;-1.480;2023-12-04T01:49:48;19.07;;;9.13;;
21258;SDS011;10787;53.364;-1.480;2023-12-04T01:52:32;17.77;;;8.73;;
21258;SDS011;10787;53.364;-1.480;2023-12-04T01:55:17;19.50;;;8.63;;
21258;SDS011;10787;53.364;-1.480;2023-12-04T01:58:01;18.37;;;9.00;;
21258;SDS011;10787;53.364;-1.480;2023-12-04T02:00:46;19.03;;;8.87;;
21258;SDS011;10787;53.364;-1.480;2023-12-04T02:03:31;18.27;;;8.70;;
21258;SDS011;10787;53.364;-1.480;2023-12-04T02:06:16;18.07;;;8.63;;
21258;SDS011;10787;53.364;-1.480;2023-12-04T02:09:04;17.57;;;9.00;;
21258;SDS011;10787;53.364;-1.480;2023-12-04T02:11:50;17.43;;;8.93;;
21258;SDS011;10787;53.364;-1.480;2023-12-04T02:14:41;16.83;;;8.73;;
21258;SDS011;10787;53.364;-1.480;2023-12-04T02:17:26;16.90;;;8.57;;
21258;SDS011;10787;53.364;-1.480;2023-12-04T02:20:13;16.50;;;8.40;;
21258;SDS011;10787;53.364;-1.480;2023-12-04T02:22:57;17.83;;;8.30;;
21258;SDS011;10787;53.364;-1.480;2023-12-04T02:25:42;17.13;;;8.37;;
21258;SDS011;10787;53.364;-1.480;2023-12-04T02:28:29;17.77;;;8.37;;
21258;SDS011;10787;53.364;-1.480;2023-12-04T02:31:16;18.70;;;9.20;;
21258;SDS011;10787;53.364;-1.480;2023-12-04T02:34:02;18.83;;;9.03;;
21258;SDS011;10787;53.364;-1.480;2023-12-04T02:36:48;16.93;;;8.53;;
21258;SDS011;10787;53.364;-1.480;2023-12-04T02:39:35;18.77;;;9.37;;
21258;SDS011;10787;53.364;-1.480;2023-12-04T02:42:20;18.77;;;8.63;;
21258;SDS011;10787;53.364;-1.480;2023-12-04T02:45:06;16.77;;;8.43;;
21258;SDS011;10787;53.364;-1.480;2023-12-04T02:47:51;16.77;;;8.57;;
21258;SDS011;10787;53.364;-1.480;2023-12-04T02:50:35;18.43;;;8.67;;
21258;SDS011;10787;53.364;-1.480;2023-12-04T02:53:19;18.30;;;8.30;;
21258;SDS011;10787;53.364;-1.480;2023-12-04T02:56:03;17.97;;;8.63;;
21258;SDS011;10787;53.364;-1.480;2023-12-04T02:58:48;18.43;;;8.60;;
21258;SDS011;10787;53.364;-1.480;2023-12-04T03:01:32;16.57;;;8.43;;
21258;SDS011;10787;53.364;-1.480;2023-12-04T03:04:16;18.13;;;8.63;;
21258;SDS011;10787;53.364;-1.480;2023-12-04T03:07:01;19.47;;;8.90;;
21258;SDS011;10787;53.364;-1.480;2023-12-04T03:09:45;18.53;;;8.50;;
21258;SDS011;10787;53.364;-1.480;2023-12-04T03:12:30;17.93;;;8.87;;
21258;SDS011;10787;53.364;-1.480;2023-12-04T03:15:14;19.03;;;9.07;;
21258;SDS011;10787;53.364;-1.480;2023-12-04T03:17:59;40.00;;;14.63;;
21258;SDS011;10787;53.364;-1.480;2023-12-04T03:20:44;19.10;;;9.00;;
21258;SDS011;10787;53.364;-1.480;2023-12-04T03:23:28;18.70;;;8.93;;
21258;SDS011;10787;53.364;-1.480;2023-12-04T03:26:12;16.67;;;8.10;;
21258;SDS011;10787;53.364;-1.480;2023-12-04T03:28:56;18.50;;;8.83;;
21258;SDS011;10787;53.364;-1.480;2023-12-04T03:31:41;16.57;;;8.50;;
21258;SDS011;10787;53.364;-1.480;2023-12-04T03:34:25;17.07;;;8.93;;
21258;SDS011;10787;53.364;-1.480;2023-12-04T03:37:10;17.50;;;8.70;;
21258;SDS011;10787;53.364;-1.480;2023-12-04T03:39:54;16.80;;;8.60;;
21258;SDS011;10787;53.364;-1.480;2023-12-04T03:42:38;18.07;;;8.60;;
21258;SDS011;10787;53.364;-1.480;2023-12-04T03:45:24;16.40;;;8.37;;
21258;SDS011;10787;53.364;-1.480;2023-12-04T03:48:08;18.37;;;8.70;;
21258;SDS011;10787;53.364;-1.480;2023-12-04T03:50:52;17.97;;;9.03;;
21258;SDS011;10787;53.364;-1.480;2023-12-04T03:53:37;15.83;;;8.07;;
21258;SDS011;10787;53.364;-1.480;2023-12-04T03:56:21;16.97;;;8.40;;
21258;SDS011;10787;53.364;-1.480;2023-12-04T03:59:05;17.80;;;8.53;;
21258;SDS011;10787;53.364;-1.480;2023-12-04T04:01:52;19.63;;;8.67;;
21258;SDS011;10787;53.364;-1.480;2023-12-04T04:04:36;17.53;;;8.73;;
21258;SDS011;10787;53.364;-1.480;2023-12-04T04:07:20;15.80;;;7.93;;
21258;SDS011;10787;53.364;-1.480;2023-12-04T04:10:04;15.97;;;8.33;;
21258;SDS011;10787;53.364;-1.480;2023-12-04T04:12:49;14.53;;;7.83;;
21258;SDS011;10787;53.364;-1.480;2023-12-04T04:15:33;14.73;;;7.43;;
21258;SDS011;10787;53.364;-1.480;2023-12-04T04:18:18;14.83;;;7.60;;
21258;SDS011;10787;53.364;-1.480;2023-12-04T04:21:02;14.23;;;7.23;;
21258;SDS011;10787;53.364;-1.480;2023-12-04T04:23:46;13.13;;;7.17;;
21258;SDS011;10787;53.364;-1.480;2023-12-04T04:26:30;14.87;;;7.57;;
21258;SDS011;10787;53.364;-1.480;2023-12-04T04:29:15;15.00;;;7.13;;
21258;SDS011;10787;53.364;-1.480;2023-12-04T04:31:59;15.67;;;7.57;;
21258;SDS011;10787;53.364;-1.480;2023-12-04T04:34:43;13.93;;;6.90;;
21258;SDS011;10787;53.364;-1.480;2023-12-04T04:37:27;12.73;;;6.83;;
21258;SDS011;10787;53.364;-1.480;2023-12-04T04:40:11;12.13;;;6.80;;
21258;SDS011;10787;53.364;-1.480;2023-12-04T04:42:56;13.83;;;6.90;;
21258;SDS011;10787;53.364;-1.480;2023-12-04T04:45:40;12.33;;;6.50;;
21258;SDS011;10787;53.364;-1.480;2023-12-04T04:48:25;13.83;;;7.00;;
21258;SDS011;10787;53.364;-1.480;2023-12-04T04:51:10;13.27;;;6.40;;
21258;SDS011;10787;53.364;-1.480;2023-12-04T04:53:54;14.87;;;7.10;;
21258;SDS011;10787;53.364;-1.480;2023-12-04T04:56:39;14.00;;;7.17;;
21258;SDS011;10787;53.364;-1.480;2023-12-04T04:59:23;13.37;;;7.30;;
21258;SDS011;10787;53.364;-1.480;2023-12-04T05:02:08;12.37;;;6.40;;
21258;SDS011;10787;53.364;-1.480;2023-12-04T05:04:53;13.33;;;6.97;;
21258;SDS011;10787;53.364;-1.480;2023-12-04T05:07:37;11.77;;;6.67;;
21258;SDS011;10787;53.364;-1.480;2023-12-04T05:10:21;13.00;;;6.83;;
21258;SDS011;10787;53.364;-1.480;2023-12-04T05:13:05;14.10;;;6.93;;
21258;SDS011;10787;53.364;-1.480;2023-12-04T05:15:49;13.57;;;7.03;;
21258;SDS011;10787;53.364;-1.480;2023-12-04T05:18:33;13.87;;;6.67;;
21258;SDS011;10787;53.364;-1.480;2023-12-04T05:21:17;13.00;;;6.97;;
21258;SDS011;10787;53.364;-1.480;2023-12-04T05:24:02;13.63;;;7.13;;
21258;SDS011;10787;53.364;-1.480;2023-12-04T05:26:47;12.20;;;6.53;;
21258;SDS011;10787;53.364;-1.480;2023-12-04T05:29:31;11.90;;;6.73;;
21258;SDS011;10787;53.364;-1.480;2023-12-04T05:32:15;10.73;;;6.20;;
21258;SDS011;10787;53.364;-1.480;2023-12-04T05:34:59;13.43;;;6.53;;
21258;SDS011;10787;53.364;-1.480;2023-12-04T05:37:43;11.83;;;6.50;;
21258;SDS011;10787;53.364;-1.480;2023-12-04T05:40:29;12.33;;;6.03;;
21258;SDS011;10787;53.364;-1.480;2023-12-04T05:43:13;12.37;;;6.60;;
21258;SDS011;10787;53.364;-1.480;2023-12-04T05:45:58;11.23;;;6.70;;
21258;SDS011;10787;53.364;-1.480;2023-12-04T05:48:42;13.10;;;6.93;;
21258;SDS011;10787;53.364;-1.480;2023-12-04T05:51:26;11.83;;;6.63;;
21258;SDS011;10787;53.364;-1.480;2023-12-04T05:54:10;17.40;;;7.07;;
21258;SDS011;10787;53.364;-1.480;2023-12-04T05:56:54;14.17;;;7.67;;
21258;SDS011;10787;53.364;-1.480;2023-12-04T05:59:39;15.20;;;7.20;;
21258;SDS011;10787;53.364;-1.480;2023-12-04T06:02:23;19.77;;;9.40;;
21258;SDS011;10787;53.364;-1.480;2023-12-04T06:05:07;11.77;;;6.30;;
21258;SDS011;10787;53.364;-1.480;2023-12-04T06:07:52;11.73;;;6.40;;
21258;SDS011;10787;53.364;-1.480;2023-12-04T06:10:36;12.93;;;6.83;;
21258;SDS011;10787;53.364;-1.480;2023-12-04T06:13:20;13.80;;;6.97;;
21258;SDS011;10787;53.364;-1.480;2023-12-04T06:16:04;13.47;;;6.87;;
21258;SDS011;10787;53.364;-1.480;2023-12-04T06:18:56;14.73;;;7.20;;
21258;SDS011;10787;53.364;-1.480;2023-12-04T06:21:40;12.90;;;6.93;;
21258;SDS011;10787;53.364;-1.480;2023-12-04T06:24:25;13.77;;;6.80;;
21258;SDS011;10787;53.364;-1.480;2023-12-04T06:27:10;12.77;;;6.90;;
21258;SDS011;10787;53.364;-1.480;2023-12-04T06:29:58;13.27;;;6.87;;
21258;SDS011;10787;53.364;-1.480;2023-12-04T06:32:43;14.07;;;7.17;;
21258;SDS011;10787;53.364;-1.480;2023-12-04T06:35:27;13.63;;;7.00;;
21258;SDS011;10787;53.364;-1.480;2023-12-04T06:38:12;36.67;;;9.40;;
21258;SDS011;10787;53.364;-1.480;2023-12-04T06:41:00;26.10;;;8.97;;
21258;SDS011;10787;53.364;-1.480;2023-12-04T06:43:45;237.03;;;19.87;;
21258;SDS011;10787;53.364;-1.480;2023-12-04T06:46:30;13.53;;;7.63;;
21258;SDS011;10787;53.364;-1.480;2023-12-04T06:49:16;11.17;;;6.53;;
21258;SDS011;10787;53.364;-1.480;2023-12-04T06:52:01;9.07;;;5.63;;
21258;SDS011;10787;53.364;-1.480;2023-12-04T06:54:46;8.13;;;5.57;;
21258;SDS011;10787;53.364;-1.480;2023-12-04T06:57:31;10.40;;;6.27;;
21258;SDS011;10787;53.364;-1.480;2023-12-04T07:00:15;209.50;;;14.63;;
21258;SDS011;10787;53.364;-1.480;2023-12-04T07:03:00;23.63;;;7.07;;
21258;SDS011;10787;53.364;-1.480;2023-12-04T07:05:44;11.67;;;6.77;;
21258;SDS011;10787;53.364;-1.480;2023-12-04T07:08:28;12.30;;;7.43;;
21258;SDS011;10787;53.364;-1.480;2023-12-04T07:11:12;18.23;;;7.70;;
21258;SDS011;10787;53.364;-1.480;2023-12-04T07:13:58;16.63;;;8.43;;
21258;SDS011;10787;53.364;-1.480;2023-12-04T07:16:42;14.17;;;7.93;;
21258;SDS011;10787;53.364;-1.480;2023-12-04T07:19:27;32.00;;;15.67;;
21258;SDS011;10787;53.364;-1.480;2023-12-04T07:22:12;24.53;;;12.77;;
21258;SDS011;10787;53.364;-1.480;2023-12-04T07:24:56;18.10;;;9.83;;
21258;SDS011;10787;53.364;-1.480;2023-12-04T07:27:40;18.40;;;9.00;;
21258;SDS011;10787;53.364;-1.480;2023-12-04T07:30:25;18.10;;;9.50;;
21258;SDS011;10787;53.364;-1.480;2023-12-04T07:33:09;19.40;;;9.93;;
21258;SDS011;10787;53.364;-1.480;2023-12-04T07:35:53;21.10;;;9.43;;
21258;SDS011;10787;53.364;-1.480;2023-12-04T07:38:38;87.10;;;12.10;;
21258;SDS011;10787;53.364;-1.480;2023-12-04T07:41:22;17.90;;;9.67;;
21258;SDS011;10787;53.364;-1.480;2023-12-04T07:44:06;24.37;;;10.40;;
21258;SDS011;10787;53.364;-1.480;2023-12-04T07:46:51;19.30;;;9.50;;
21258;SDS011;10787;53.364;-1.480;2023-12-04T07:49:36;22.43;;;10.33;;
21258;SDS011;10787;53.364;-1.480;2023-12-04T07:52:20;20.93;;;10.30;;
21258;SDS011;10787;53.364;-1.480;2023-12-04T07:55:04;20.23;;;10.43;;
21258;SDS011;10787;53.364;-1.480;2023-12-04T07:57:49;19.23;;;10.83;;
21258;SDS011;10787;53.364;-1.480;2023-12-04T08:00:34;22.83;;;11.40;;
21258;SDS011;10787;53.364;-1.480;2023-12-04T08:03:18;21.83;;;11.57;;
21258;SDS011;10787;53.364;-1.480;2023-12-04T08:06:02;20.83;;;10.43;;
21258;SDS011;10787;53.364;-1.480;2023-12-04T08:08:46;24.23;;;11.73;;
21258;SDS011;10787;53.364;-1.480;2023-12-04T08:11:31;23.63;;;11.53;;
21258;SDS011;10787;53.364;-1.480;2023-12-04T08:14:15;23.93;;;12.60;;
21258;SDS011;10787;53.364;-1.480;2023-12-04T08:16:59;22.57;;;11.70;;
21258;SDS011;10787;53.364;-1.480;2023-12-04T08:19:43;22.27;;;11.70;;
21258;SDS011;10787;53.364;-1.480;2023-12-04T08:22:28;27.20;;;12.13;;
21258;SDS011;10787;53.364;-1.480;2023-12-04T08:25:12;26.20;;;12.53;;
21258;SDS011;10787;53.364;-1.480;2023-12-04T08:27:57;23.87;;;11.43;;
21258;SDS011;10787;53.364;-1.480;2023-12-04T08:30:42;28.10;;;13.30;;
21258;SDS011;10787;53.364;-1.480;2023-12-04T08:33:27;26.30;;;12.60;;
21258;SDS011;10787;53.364;-1.480;2023-12-04T08:36:11;28.30;;;13.03;;
21258;SDS011;10787;53.364;-1.480;2023-12-04T08:38:56;28.73;;;13.53;;
21258;SDS011;10787;53.364;-1.480;2023-12-04T08:41:40;36.60;;;14.93;;
21258;SDS011;10787;53.364;-1.480;2023-12-04T08:44:24;32.77;;;15.40;;
21258;SDS011;10787;53.364;-1.480;2023-12-04T08:47:09;30.93;;;15.37;;
21258;SDS011;10787;53.364;-1.480;2023-12-04T08:49:53;28.63;;;14.17;;
21258;SDS011;10787;53.364;-1.480;2023-12-04T08:52:37;29.87;;;14.67;;
21258;SDS011;10787;53.364;-1.480;2023-12-04T08:55:25;29.53;;;14.90;;
21258;SDS011;10787;53.364;-1.480;2023-12-04T08:58:09;27.73;;;15.23;;
21258;SDS011;10787;53.364;-1.480;2023-12-04T09:00:54;31.00;;;15.93;;
21258;SDS011;10787;53.364;-1.480;2023-12-04T09:03:38;32.27;;;15.80;;
21258;SDS011;10787;53.364;-1.480;2023-12-04T09:06:22;30.20;;;15.27;;
21258;SDS011;10787;53.364;-1.480;2023-12-04T09:09:06;26.90;;;14.07;;
21258;SDS011;10787;53.364;-1.480;2023-12-04T09:11:51;22.90;;;12.80;;
21258;SDS011;10787;53.364;-1.480;2023-12-04T09:14:35;24.43;;;12.60;;
21258;SDS011;10787;53.364;-1.480;2023-12-04T09:17:20;22.07;;;11.73;;
21258;SDS011;10787;53.364;-1.480;2023-12-04T09:20:04;22.50;;;11.67;;
21258;SDS011;10787;53.364;-1.480;2023-12-04T09:22:49;20.57;;;11.63;;
21258;SDS011;10787;53.364;-1.480;2023-12-04T09:25:34;17.93;;;10.37;;
21258;SDS011;10787;53.364;-1.480;2023-12-04T09:28:18;14.67;;;9.33;;
21258;SDS011;10787;53.364;-1.480;2023-12-04T09:31:02;15.10;;;9.23;;
21258;SDS011;10787;53.364;-1.480;2023-12-04T09:33:47;20.60;;;9.07;;
21258;SDS011;10787;53.364;-1.480;2023-12-04T09:36:40;18.10;;;9.50;;
21258;SDS011;10787;53.364;-1.480;2023-12-04T09:39:25;15.00;;;9.23;;
21258;SDS011;10787;53.364;-1.480;2023-12-04T09:42:09;17.33;;;9.10;;
21258;SDS011;10787;53.364;-1.480;2023-12-04T09:44:53;18.80;;;9.50;;
21258;SDS011;10787;53.364;-1.480;2023-12-04T09:47:38;56.20;;;12.13;;
21258;SDS011;10787;53.364;-1.480;2023-12-04T09:50:23;19.90;;;10.93;;
21258;SDS011;10787;53.364;-1.480;2023-12-04T09:53:10;19.80;;;10.63;;
21258;SDS011;10787;53.364;-1.480;2023-12-04T09:55:56;18.43;;;10.33;;
21258;SDS011;10787;53.364;-1.480;2023-12-04T09:58:43;22.77;;;11.50;;
21258;SDS011;10787;53.364;-1.480;2023-12-04T10:01:29;25.23;;;11.27;;
21258;SDS011;10787;53.364;-1.480;2023-12-04T10:04:14;20.53;;;10.90;;
21258;SDS011;10787;53.364;-1.480;2023-12-04T10:06:58;18.90;;;10.50;;
21258;SDS011;10787;53.364;-1.480;2023-12-04T10:09:42;17.33;;;10.60;;
21258;SDS011;10787;53.364;-1.480;2023-12-04T10:12:27;21.77;;;11.93;;
21258;SDS011;10787;53.364;-1.480;2023-12-04T10:15:11;20.40;;;11.07;;
21258;SDS011;10787;53.364;-1.480;2023-12-04T10:17:56;19.20;;;11.13;;
21258;SDS011;10787;53.364;-1.480;2023-12-04T10:20:51;20.63;;;10.50;;
21258;SDS011;10787;53.364;-1.480;2023-12-04T10:23:41;22.97;;;11.80;;
21258;SDS011;10787;53.364;-1.480;2023-12-04T10:26:27;21.90;;;11.10;;
21258;SDS011;10787;53.364;-1.480;2023-12-04T10:29:11;36.37;;;12.57;;
21258;SDS011;10787;53.364;-1.480;2023-12-04T10:31:55;22.20;;;12.30;;
21258;SDS011;10787;53.364;-1.480;2023-12-04T10:34:42;21.80;;;11.17;;
21258;SDS011;10787;53.364;-1.480;2023-12-04T10:37:28;21.93;;;11.13;;
21258;SDS011;10787;53.364;-1.480;2023-12-04T10:40:13;22.60;;;12.00;;
21258;SDS011;10787;53.364;-1.480;2023-12-04T10:43:25;19.03;;;10.30;;
21258;SDS011;10787;53.364;-1.480;2023-12-04T10:46:10;19.00;;;10.30;;
21258;SDS011;10787;53.364;-1.480;2023-12-04T10:48:56;100.63;;;14.50;;
21258;SDS011;10787;53.364;-1.480;2023-12-04T10:51:42;22.03;;;10.20;;
21258;SDS011;10787;53.364;-1.480;2023-12-04T10:54:28;19.03;;;10.07;;
21258;SDS011;10787;53.364;-1.480;2023-12-04T10:57:13;18.80;;;10.47;;
21258;SDS011;10787;53.364;-1.480;2023-12-04T11:00:05;19.43;;;10.30;;
21258;SDS011;10787;53.364;-1.480;2023-12-04T11:02:52;17.80;;;10.30;;
21258;SDS011;10787;53.364;-1.480;2023-12-04T11:05:40;18.20;;;10.03;;
21258;SDS011;10787;53.364;-1.480;2023-12-04T11:08:24;24.47;;;12.40;;
21258;SDS011;10787;53.364;-1.480;2023-12-04T11:11:15;19.43;;;11.47;;
21258;SDS011;10787;53.364;-1.480;2023-12-04T11:14:04;19.50;;;11.37;;
21258;SDS011;10787;53.364;-1.480;2023-12-04T11:16:53;17.20;;;9.97;;
21258;SDS011;10787;53.364;-1.480;2023-12-04T11:22:51;19.17;;;10.03;;
21258;SDS011;10787;53.364;-1.480;2023-12-04T11:25:37;21.30;;;10.67;;
21258;SDS011;10787;53.364;-1.480;2023-12-04T11:28:22;17.93;;;9.73;;
21258;SDS011;10787;53.364;-1.480;2023-12-04T11:31:07;17.77;;;9.87;;
21258;SDS011;10787;53.364;-1.480;2023-12-04T11:33:52;18.13;;;10.47;;
21258;SDS011;10787;53.364;-1.480;2023-12-04T11:36:36;23.33;;;11.20;;
21258;SDS011;10787;53.364;-1.480;2023-12-04T11:39:21;17.93;;;10.37;;
21258;SDS011;10787;53.364;-1.480;2023-12-04T11:42:08;21.20;;;11.37;;
21258;SDS011;10787;53.364;-1.480;2023-12-04T11:45:04;21.63;;;11.33;;
21258;SDS011;10787;53.364;-1.480;2023-12-04T11:47:55;19.30;;;10.83;;
21258;SDS011;10787;53.364;-1.480;2023-12-04T11:50:40;25.57;;;12.33;;
21258;SDS011;10787;53.364;-1.480;2023-12-04T11:53:26;25.30;;;12.43;;
21258;SDS011;10787;53.364;-1.480;2023-12-04T11:56:11;21.37;;;11.47;;
21258;SDS011;10787;53.364;-1.480;2023-12-04T11:59:06;23.80;;;11.87;;
21258;SDS011;10787;53.364;-1.480;2023-12-04T12:01:51;20.53;;;11.63;;
21258;SDS011;10787;53.364;-1.480;2023-12-04T12:04:39;19.97;;;11.23;;
21258;SDS011;10787;53.364;-1.480;2023-12-04T12:07:24;21.40;;;11.80;;
21258;SDS011;10787;53.364;-1.480;2023-12-04T12:10:09;20.53;;;11.67;;
21258;SDS011;10787;53.364;-1.480;2023-12-04T12:12:55;21.33;;;11.87;;
21258;SDS011;10787;53.364;-1.480;2023-12-04T12:15:40;21.93;;;12.00;;
21258;SDS011;10787;53.364;-1.480;2023-12-04T12:18:24;23.53;;;12.07;;
21258;SDS011;10787;53.364;-1.480;2023-12-04T12:21:09;22.30;;;11.50;;
21258;SDS011;10787;53.364;-1.480;2023-12-04T12:23:54;21.60;;;12.60;;
21258;SDS011;10787;53.364;-1.480;2023-12-04T12:26:38;20.23;;;11.80;;
21258;SDS011;10787;53.364;-1.480;2023-12-04T12:29:23;23.73;;;12.57;;
21258;SDS011;10787;53.364;-1.480;2023-12-04T12:32:08;21.23;;;11.77;;
21258;SDS011;10787;53.364;-1.480;2023-12-04T12:34:53;37.33;;;13.10;;
21258;SDS011;10787;53.364;-1.480;2023-12-04T12:37:38;28.50;;;15.03;;
21258;SDS011;10787;53.364;-1.480;2023-12-04T12:40:23;32.13;;;17.77;;
21258;SDS011;10787;53.364;-1.480;2023-12-04T12:43:11;44.80;;;14.37;;
21258;SDS011;10787;53.364;-1.480;2023-12-04T12:45:55;24.53;;;13.70;;
21258;SDS011;10787;53.364;-1.480;2023-12-04T12:48:39;21.47;;;13.37;;
21258;SDS011;10787;53.364;-1.480;2023-12-04T12:51:23;29.20;;;14.50;;
21258;SDS011;10787;53.364;-1.480;2023-12-04T12:54:07;28.83;;;14.73;;
21258;SDS011;10787;53.364;-1.480;2023-12-04T12:56:51;26.20;;;14.10;;
21258;SDS011;10787;53.364;-1.480;2023-12-04T12:59:37;25.50;;;13.83;;
21258;SDS011;10787;53.364;-1.480;2023-12-04T13:02:22;32.33;;;14.80;;
21258;SDS011;10787;53.364;-1.480;2023-12-04T13:05:06;26.30;;;14.63;;
21258;SDS011;10787;53.364;-1.480;2023-12-04T13:07:51;25.67;;;13.53;;
21258;SDS011;10787;53.364;-1.480;2023-12-04T13:10:36;23.70;;;14.20;;
21258;SDS011;10787;53.364;-1.480;2023-12-04T13:13:20;128.83;;;18.50;;
21258;SDS011;10787;53.364;-1.480;2023-12-04T13:16:05;29.30;;;14.60;;
21258;SDS011;10787;53.364;-1.480;2023-12-04T13:18:49;50.80;;;16.43;;
21258;SDS011;10787;53.364;-1.480;2023-12-04T13:21:34;27.07;;;13.83;;
21258;SDS011;10787;53.364;-1.480;2023-12-04T13:24:18;27.37;;;13.67;;
21258;SDS011;10787;53.364;-1.480;2023-12-04T13:27:03;23.93;;;13.23;;
21258;SDS011;10787;53.364;-1.480;2023-12-04T13:29:47;29.73;;;14.27;;
21258;SDS011;10787;53.364;-1.480;2023-12-04T13:32:37;26.60;;;13.97;;
21258;SDS011;10787;53.364;-1.480;2023-12-04T13:35:22;26.73;;;13.27;;
21258;SDS011;10787;53.364;-1.480;2023-12-04T13:38:06;24.00;;;13.27;;
21258;SDS011;10787;53.364;-1.480;2023-12-04T13:40:56;62.73;;;14.97;;
21258;SDS011;10787;53.364;-1.480;2023-12-04T13:44:05;40.10;;;14.90;;
21258;SDS011;10787;53.364;-1.480;2023-12-04T13:46:53;31.73;;;15.03;;
21258;SDS011;10787;53.364;-1.480;2023-12-04T13:49:37;27.40;;;13.97;;
21258;SDS011;10787;53.364;-1.480;2023-12-04T13:52:21;22.83;;;13.37;;
21258;SDS011;10787;53.364;-1.480;2023-12-04T13:55:06;26.63;;;13.63;;
21258;SDS011;10787;53.364;-1.480;2023-12-04T13:58:03;23.33;;;14.03;;
21258;SDS011;10787;53.364;-1.480;2023-12-04T14:00:47;27.70;;;14.87;;
21258;SDS011;10787;53.364;-1.480;2023-12-04T14:03:31;29.13;;;14.53;;
21258;SDS011;10787;53.364;-1.480;2023-12-04T14:06:15;25.47;;;14.60;;
21258;SDS011;10787;53.364;-1.480;2023-12-04T14:09:00;25.27;;;14.70;;
21258;SDS011;10787;53.364;-1.480;2023-12-04T14:11:45;25.03;;;13.77;;
21258;SDS011;10787;53.364;-1.480;2023-12-04T14:14:29;29.10;;;13.93;;
21258;SDS011;10787;53.364;-1.480;2023-12-04T14:17:13;24.80;;;13.90;;
21258;SDS011;10787;53.364;-1.480;2023-12-04T14:19:58;25.30;;;15.03;;
21258;SDS011;10787;53.364;-1.480;2023-12-04T14:22:43;29.93;;;16.10;;
21258;SDS011;10787;53.364;-1.480;2023-12-04T14:25:29;26.33;;;14.23;;
21258;SDS011;10787;53.364;-1.480;2023-12-04T14:28:13;23.27;;;13.60;;
21258;SDS011;10787;53.364;-1.480;2023-12-04T14:30:57;25.13;;;13.87;;
21258;SDS011;10787;53.364;-1.480;2023-12-04T14:33:42;27.93;;;13.57;;
21258;SDS011;10787;53.364;-1.480;2023-12-04T14:36:26;27.13;;;13.50;;
21258;SDS011;10787;53.364;-1.480;2023-12-04T14:39:11;24.30;;;13.70;;
21258;SDS011;10787;53.364;-1.480;2023-12-04T14:41:56;27.23;;;13.97;;
21258;SDS011;10787;53.364;-1.480;2023-12-04T14:44:40;23.17;;;13.30;;
21258;SDS011;10787;53.364;-1.480;2023-12-04T14:47:24;27.70;;;13.33;;
21258;SDS011;10787;53.364;-1.480;2023-12-04T14:50:08;21.77;;;13.07;;
21258;SDS011;10787;53.364;-1.480;2023-12-04T14:52:53;23.87;;;12.77;;
21258;SDS011;10787;53.364;-1.480;2023-12-04T14:55:39;23.53;;;12.97;;
21258;SDS011;10787;53.364;-1.480;2023-12-04T14:58:42;24.67;;;13.10;;
21258;SDS011;10787;53.364;-1.480;2023-12-04T15:01:29;25.07;;;13.73;;
21258;SDS011;10787;53.364;-1.480;2023-12-04T15:04:32;26.40;;;14.23;;
21258;SDS011;10787;53.364;-1.480;2023-12-04T15:07:35;24.63;;;14.40;;
21258;SDS011;10787;53.364;-1.480;2023-12-04T15:10:19;205.40;;;26.77;;
21258;SDS011;10787;53.364;-1.480;2023-12-04T15:13:21;27.50;;;14.43;;
21258;SDS011;10787;53.364;-1.480;2023-12-04T15:16:24;23.00;;;12.80;;
21258;SDS011;10787;53.364;-1.480;2023-12-04T15:19:18;22.60;;;12.73;;
21258;SDS011;10787;53.364;-1.480;2023-12-04T15:22:19;20.33;;;11.33;;
21258;SDS011;10787;53.364;-1.480;2023-12-04T15:25:04;21.87;;;11.77;;
21258;SDS011;10787;53.364;-1.480;2023-12-04T15:27:51;20.57;;;10.90;;
21258;SDS011;10787;53.364;-1.480;2023-12-04T15:30:39;21.27;;;11.97;;
21258;SDS011;10787;53.364;-1.480;2023-12-04T15:33:25;22.47;;;12.10;;
21258;SDS011;10787;53.364;-1.480;2023-12-04T15:36:11;23.53;;;12.97;;
21258;SDS011;10787;53.364;-1.480;2023-12-04T15:38:55;21.90;;;12.37;;
21258;SDS011;10787;53.364;-1.480;2023-12-04T15:41:39;30.13;;;13.30;;
21258;SDS011;10787;53.364;-1.480;2023-12-04T15:44:24;23.93;;;13.47;;
21258;SDS011;10787;53.364;-1.480;2023-12-04T15:47:09;24.07;;;13.53;;
21258;SDS011;10787;53.364;-1.480;2023-12-04T15:50:05;23.53;;;13.90;;
21258;SDS011;10787;53.364;-1.480;2023-12-04T15:52:50;25.53;;;13.50;;
21258;SDS011;10787;53.364;-1.480;2023-12-04T15:55:34;24.20;;;13.63;;
21258;SDS011;10787;53.364;-1.480;2023-12-04T15:58:19;27.07;;;13.30;;
21258;SDS011;10787;53.364;-1.480;2023-12-04T16:01:03;23.90;;;13.10;;